sensor_id;sensor_type;location;lat;lon;timestamp;pressure;altitude;pressure_sealevel;temperature
43802;BMP280;29429;51.074;13.764;2023-04-24T00:02:24;98750.69;;;13.07
43802;BMP280;29429;51.074;13.764;2023-04-24T00:04:53;98752.53;;;13.06
43802;BMP280;29429;51.074;13.764;2023-04-24T00:07:19;98740.94;;;13.01
43802;BMP280;29429;51.074;13.764;2023-04-24T00:09:46;98740.13;;;13.00
43802;BMP280;29429;51.074;13.764;2023-04-24T00:12:13;98750.03;;;13.00
43802;BMP280;29429;51.074;13.764;2023-04-24T00:14:41;98752.19;;;13.03
43802;BMP280;29429;51.074;13.764;2023-04-24T00:17:07;98737.22;;;13.02
43802;BMP280;29429;51.074;13.764;2023-04-24T00:19:34;98739.63;;;13.03
43802;BMP280;29429;51.074;13.764;2023-04-24T00:22:03;98749.28;;;13.04
43802;BMP280;29429;51.074;13.764;2023-04-24T00:24:30;98752.53;;;13.06
43802;BMP280;29429;51.074;13.764;2023-04-24T00:26:57;98770.81;;;13.09
43802;BMP280;29429;51.074;13.764;2023-04-24T00:29:24;98769.50;;;13.12
43802;BMP280;29429;51.074;13.764;2023-04-24T00:31:51;98770.88;;;13.14
43802;BMP280;29429;51.074;13.764;2023-04-24T00:34:18;98765.59;;;13.19
43802;BMP280;29429;51.074;13.764;2023-04-24T00:36:45;98760.25;;;13.19
43802;BMP280;29429;51.074;13.764;2023-04-24T00:39:12;98761.06;;;13.20
43802;BMP280;29429;51.074;13.764;2023-04-24T00:41:39;98762.94;;;13.19
43802;BMP280;29429;51.074;13.764;2023-04-24T00:44:06;98762.44;;;13.22
43802;BMP280;29429;51.074;13.764;2023-04-24T00:46:35;98764.31;;;13.22
43802;BMP280;29429;51.074;13.764;2023-04-24T00:49:02;98771.03;;;13.24
43802;BMP280;29429;51.074;13.764;2023-04-24T00:51:29;98750.69;;;13.23
43802;BMP280;29429;51.074;13.764;2023-04-24T00:53:57;98754.97;;;13.24
43802;BMP280;29429;51.074;13.764;2023-04-24T00:56:24;98753.91;;;13.25
43802;BMP280;29429;51.074;13.764;2023-04-24T00:58:52;98757.72;;;13.29
43802;BMP280;29429;51.074;13.764;2023-04-24T01:01:22;98760.97;;;13.31
43802;BMP280;29429;51.074;13.764;2023-04-24T01:03:51;98750.81;;;13.33
43802;BMP280;29429;51.074;13.764;2023-04-24T01:06:20;98748.16;;;13.33
43802;BMP280;29429;51.074;13.764;2023-04-24T01:08:49;98749.50;;;13.36
43802;BMP280;29429;51.074;13.764;2023-04-24T01:11:17;98739.84;;;13.35
43802;BMP280;29429;51.074;13.764;2023-04-24T01:13:45;98745.97;;;13.30
43802;BMP280;29429;51.074;13.764;2023-04-24T01:16:13;98743.84;;;13.32
43802;BMP280;29429;51.074;13.764;2023-04-24T01:18:41;98749.19;;;13.32
43802;BMP280;29429;51.074;13.764;2023-04-24T01:21:13;98756.19;;;13.33
43802;BMP280;29429;51.074;13.764;2023-04-24T01:23:43;98757.00;;;13.34
43802;BMP280;29429;51.074;13.764;2023-04-24T01:26:11;98761.28;;;13.35
43802;BMP280;29429;51.074;13.764;2023-04-24T01:28:38;98755.03;;;13.29
43802;BMP280;29429;51.074;13.764;2023-04-24T01:31:06;98760.38;;;13.29
43802;BMP280;29429;51.074;13.764;2023-04-24T01:33:33;98763.88;;;13.30
43802;BMP280;29429;51.074;13.764;2023-04-24T01:36:01;98762.03;;;13.30
43802;BMP280;29429;51.074;13.764;2023-04-24T01:38:28;98760.97;;;13.31
43802;BMP280;29429;51.074;13.764;2023-04-24T01:40:55;98752.94;;;13.31
43802;BMP280;29429;51.074;13.764;2023-04-24T01:43:24;98757.47;;;13.31
43802;BMP280;29429;51.074;13.764;2023-04-24T01:45:51;98750.75;;;13.28
43802;BMP280;29429;51.074;13.764;2023-04-24T01:48:18;98751.88;;;13.32
43802;BMP280;29429;51.074;13.764;2023-04-24T01:50:45;98753.56;;;13.38
43802;BMP280;29429;51.074;13.764;2023-04-24T01:53:12;98754.94;;;13.41
43802;BMP280;29429;51.074;13.764;2023-04-24T01:55:40;98752.00;;;13.42
43802;BMP280;29429;51.074;13.764;2023-04-24T01:58:07;98756.31;;;13.43
43802;BMP280;29429;51.074;13.764;2023-04-24T02:00:35;98746.09;;;13.40
43802;BMP280;29429;51.074;13.764;2023-04-24T02:03:02;98743.19;;;13.42
43802;BMP280;29429;51.074;13.764;2023-04-24T02:05:29;98750.97;;;13.43
43802;BMP280;29429;51.074;13.764;2023-04-24T02:07:56;98748.00;;;13.45
43802;BMP280;29429;51.074;13.764;2023-04-24T02:10:23;98742.66;;;13.45
43802;BMP280;29429;51.074;13.764;2023-04-24T02:12:51;98743.47;;;13.46
43802;BMP280;29429;51.074;13.764;2023-04-24T02:15:22;98743.47;;;13.46
43802;BMP280;29429;51.074;13.764;2023-04-24T02:17:49;98750.47;;;13.47
43802;BMP280;29429;51.074;13.764;2023-04-24T02:20:16;98737.56;;;13.43
43802;BMP280;29429;51.074;13.764;2023-04-24T02:22:44;98744.56;;;13.45
43802;BMP280;29429;51.074;13.764;2023-04-24T02:25:11;98745.59;;;13.43
43802;BMP280;29429;51.074;13.764;2023-04-24T02:27:38;98745.28;;;13.40
43802;BMP280;29429;51.074;13.764;2023-04-24T02:30:06;98739.63;;;13.36
43802;BMP280;29429;51.074;13.764;2023-04-24T02:32:34;98748.22;;;13.38
43802;BMP280;29429;51.074;13.764;2023-04-24T02:35:01;98742.53;;;13.35
43802;BMP280;29429;51.074;13.764;2023-04-24T02:37:28;98751.94;;;13.37
43802;BMP280;29429;51.074;13.764;2023-04-24T02:39:55;98747.66;;;13.36
43802;BMP280;29429;51.074;13.764;2023-04-24T02:42:22;98748.44;;;13.37
43802;BMP280;29429;51.074;13.764;2023-04-24T02:44:48;98748.44;;;13.37
43802;BMP280;29429;51.074;13.764;2023-04-24T02:47:18;98745.28;;;13.40
43802;BMP280;29429;51.074;13.764;2023-04-24T02:49:45;98743.41;;;13.40
43802;BMP280;29429;51.074;13.764;2023-04-24T02:52:12;98752.59;;;13.45
43802;BMP280;29429;51.074;13.764;2023-04-24T02:54:40;98744.28;;;13.46
43802;BMP280;29429;51.074;13.764;2023-04-24T02:57:07;98739.69;;;13.41
43802;BMP280;29429;51.074;13.764;2023-04-24T02:59:33;98743.97;;;13.42
43802;BMP280;29429;51.074;13.764;2023-04-24T03:02:01;98747.72;;;13.41
43802;BMP280;29429;51.074;13.764;2023-04-24T03:04:28;98744.47;;;13.39
43802;BMP280;29429;51.074;13.764;2023-04-24T03:06:55;98741.22;;;13.37
43802;BMP280;29429;51.074;13.764;2023-04-24T03:09:22;98744.38;;;13.34
43802;BMP280;29429;51.074;13.764;2023-04-24T03:11:49;98743.03;;;13.32
43802;BMP280;29429;51.074;13.764;2023-04-24T03:14:16;98747.59;;;13.31
43802;BMP280;29429;51.074;13.764;2023-04-24T03:16:43;98741.91;;;13.28
43802;BMP280;29429;51.074;13.764;2023-04-24T03:19:10;98736.56;;;13.28
43802;BMP280;29429;51.074;13.764;2023-04-24T03:21:46;98730.88;;;13.24
43802;BMP280;29429;51.074;13.764;2023-04-24T03:24:13;98734.63;;;13.23
43802;BMP280;29429;51.074;13.764;2023-04-24T03:26:41;98740.75;;;13.24
43802;BMP280;29429;51.074;13.764;2023-04-24T03:29:32;98735.53;;;13.12
43802;BMP280;29429;51.074;13.764;2023-04-24T03:31:59;98739.09;;;13.18
43802;BMP280;29429;51.074;13.764;2023-04-24T03:34:26;98746.88;;;13.19
43802;BMP280;29429;51.074;13.764;2023-04-24T03:36:53;98739.31;;;13.16
43802;BMP280;29429;51.074;13.764;2023-04-24T03:39:20;98750.03;;;13.16
43802;BMP280;29429;51.074;13.764;2023-04-24T03:41:53;98747.13;;;13.18
43802;BMP280;29429;51.074;13.764;2023-04-24T03:44:25;98750.34;;;13.20
43802;BMP280;29429;51.074;13.764;2023-04-24T03:46:52;98754.91;;;13.19
43802;BMP280;29429;51.074;13.764;2023-04-24T03:49:21;98758.06;;;13.16
43802;BMP280;29429;51.074;13.764;2023-04-24T03:51:48;98761.56;;;13.17
43802;BMP280;29429;51.074;13.764;2023-04-24T03:54:24;98757.50;;;13.14
43802;BMP280;29429;51.074;13.764;2023-04-24T03:56:53;98760.19;;;13.14
43802;BMP280;29429;51.074;13.764;2023-04-24T03:59:20;98770.63;;;13.16
43802;BMP280;29429;51.074;13.764;2023-04-24T04:01:58;98775.28;;;13.20
43802;BMP280;29429;51.074;13.764;2023-04-24T04:04:25;98775.75;;;13.17
43802;BMP280;29429;51.074;13.764;2023-04-24T04:06:53;98781.66;;;13.19
43802;BMP280;29429;51.074;13.764;2023-04-24T04:09:20;98778.75;;;13.21
43802;BMP280;29429;51.074;13.764;2023-04-24T04:11:47;98787.66;;;13.26
43802;BMP280;29429;51.074;13.764;2023-04-24T04:14:14;98785.06;;;13.31
43802;BMP280;29429;51.074;13.764;2023-04-24T04:16:45;98791.00;;;13.33
43802;BMP280;29429;51.074;13.764;2023-04-24T04:19:13;98784.88;;;13.38
43802;BMP280;29429;51.074;13.764;2023-04-24T04:21:40;98783.78;;;13.34
43802;BMP280;29429;51.074;13.764;2023-04-24T04:24:19;98781.16;;;13.39
43802;BMP280;29429;51.074;13.764;2023-04-24T04:26:51;98783.09;;;13.43
43802;BMP280;29429;51.074;13.764;2023-04-24T04:29:25;98774.50;;;13.41
43802;BMP280;29429;51.074;13.764;2023-04-24T04:31:53;98782.03;;;13.45
43802;BMP280;29429;51.074;13.764;2023-04-24T04:34:20;98778.63;;;13.49
43802;BMP280;29429;51.074;13.764;2023-04-24T04:36:48;98782.13;;;13.50
43802;BMP280;29429;51.074;13.764;2023-04-24T04:39:29;98781.84;;;13.51
43802;BMP280;29429;51.074;13.764;2023-04-24T04:42:03;98772.44;;;13.49
43802;BMP280;29429;51.074;13.764;2023-04-24T04:44:36;98774.63;;;13.52
43802;BMP280;29429;51.074;13.764;2023-04-24T04:47:06;98780.59;;;13.59
43802;BMP280;29429;51.074;13.764;2023-04-24T04:49:36;98774.22;;;13.60
43802;BMP280;29429;51.074;13.764;2023-04-24T04:52:06;98771.03;;;13.63
43802;BMP280;29429;51.074;13.764;2023-04-24T04:54:33;98766.78;;;13.67
43802;BMP280;29429;51.074;13.764;2023-04-24T04:57:01;98777.13;;;13.80
43802;BMP280;29429;51.074;13.764;2023-04-24T04:59:30;98779.88;;;13.85
43802;BMP280;29429;51.074;13.764;2023-04-24T05:02:03;98777.25;;;13.90
43802;BMP280;29429;51.074;13.764;2023-04-24T05:04:30;98777.41;;;14.00
43802;BMP280;29429;51.074;13.764;2023-04-24T05:06:58;98780.72;;;14.12
43802;BMP280;29429;51.074;13.764;2023-04-24T05:09:28;98785.16;;;14.23
43802;BMP280;29429;51.074;13.764;2023-04-24T05:12:01;98785.75;;;14.30
43802;BMP280;29429;51.074;13.764;2023-04-24T05:14:33;98793.69;;;14.42
43802;BMP280;29429;51.074;13.764;2023-04-24T05:17:00;98788.13;;;14.48
43802;BMP280;29429;51.074;13.764;2023-04-24T05:19:28;98788.25;;;14.58
43802;BMP280;29429;51.074;13.764;2023-04-24T05:21:56;98784.00;;;14.68
43802;BMP280;29429;51.074;13.764;2023-04-24T05:24:23;98781.69;;;14.76
43802;BMP280;29429;51.074;13.764;2023-04-24T05:27:08;98780.44;;;14.89
43802;BMP280;29429;51.074;13.764;2023-04-24T05:29:39;98779.41;;;14.95
43802;BMP280;29429;51.074;13.764;2023-04-24T05:32:08;98784.84;;;15.05
43802;BMP280;29429;51.074;13.764;2023-04-24T05:34:35;98784.94;;;15.15
43802;BMP280;29429;51.074;13.764;2023-04-24T05:37:02;98777.72;;;15.20
43802;BMP280;29429;51.074;13.764;2023-04-24T05:39:30;98780.47;;;15.31
43802;BMP280;29429;51.074;13.764;2023-04-24T05:41:58;98779.16;;;15.38
43802;BMP280;29429;51.074;13.764;2023-04-24T05:44:26;98780.88;;;15.49
43802;BMP280;29429;51.074;13.764;2023-04-24T05:46:53;98773.41;;;15.56
43802;BMP280;29429;51.074;13.764;2023-04-24T05:49:23;98777.75;;;15.67
43802;BMP280;29429;51.074;13.764;2023-04-24T05:51:50;98773.78;;;15.75
43802;BMP280;29429;51.074;13.764;2023-04-24T05:54:18;98781.59;;;15.87
43802;BMP280;29429;51.074;13.764;2023-04-24T05:56:45;98776.25;;;15.97
43802;BMP280;29429;51.074;13.764;2023-04-24T05:59:20;98785.97;;;16.03
43802;BMP280;29429;51.074;13.764;2023-04-24T06:01:47;98769.84;;;16.08
43802;BMP280;29429;51.074;13.764;2023-04-24T06:04:18;98789.00;;;16.21
43802;BMP280;29429;51.074;13.764;2023-04-24T06:06:45;98787.66;;;16.34
43802;BMP280;29429;51.074;13.764;2023-04-24T06:09:12;98788.25;;;16.41
43802;BMP280;29429;51.074;13.764;2023-04-24T06:11:40;98795.00;;;16.49
43802;BMP280;29429;51.074;13.764;2023-04-24T06:14:10;98784.25;;;16.54
43802;BMP280;29429;51.074;13.764;2023-04-24T06:16:38;98785.88;;;16.55
43802;BMP280;29429;51.074;13.764;2023-04-24T06:19:17;98772.16;;;16.61
43802;BMP280;29429;51.074;13.764;2023-04-24T06:21:44;98784.56;;;16.72
43802;BMP280;29429;51.074;13.764;2023-04-24T06:24:14;98784.56;;;16.82
43802;BMP280;29429;51.074;13.764;2023-04-24T06:26:43;98782.38;;;16.84
43802;BMP280;29429;51.074;13.764;2023-04-24T06:29:10;98779.16;;;16.87
43802;BMP280;29429;51.074;13.764;2023-04-24T06:31:37;98781.84;;;16.92
43802;BMP280;29429;51.074;13.764;2023-04-24T06:34:05;98780.25;;;16.96
43802;BMP280;29429;51.074;13.764;2023-04-24T06:36:32;98779.44;;;17.06
43802;BMP280;29429;51.074;13.764;2023-04-24T06:39:01;98785.09;;;17.15
43802;BMP280;29429;51.074;13.764;2023-04-24T06:41:29;98787.22;;;17.23
43802;BMP280;29429;51.074;13.764;2023-04-24T06:43:57;98784.25;;;17.29
43802;BMP280;29429;51.074;13.764;2023-04-24T06:46:24;98779.41;;;17.26
43802;BMP280;29429;51.074;13.764;2023-04-24T06:48:54;98789.38;;;17.26
43802;BMP280;29429;51.074;13.764;2023-04-24T06:51:23;98787.75;;;17.35
43802;BMP280;29429;51.074;13.764;2023-04-24T06:53:54;98781.53;;;17.44
43802;BMP280;29429;51.074;13.764;2023-04-24T06:56:23;98792.84;;;17.61
43802;BMP280;29429;51.074;13.764;2023-04-24T06:58:51;98785.50;;;17.82
43802;BMP280;29429;51.074;13.764;2023-04-24T07:01:18;98787.63;;;17.85
43802;BMP280;29429;51.074;13.764;2023-04-24T07:03:46;98783.56;;;17.93
43802;BMP280;29429;51.074;13.764;2023-04-24T07:06:13;98787.78;;;18.14
43802;BMP280;29429;51.074;13.764;2023-04-24T07:08:44;98791.75;;;18.32
43802;BMP280;29429;51.074;13.764;2023-04-24T07:11:11;98787.63;;;18.49
43802;BMP280;29429;51.074;13.764;2023-04-24T07:13:39;98786.69;;;18.69
43802;BMP280;29429;51.074;13.764;2023-04-24T07:16:09;98784.44;;;18.81
43802;BMP280;29429;51.074;13.764;2023-04-24T07:18:37;98784.34;;;18.91
43802;BMP280;29429;51.074;13.764;2023-04-24T07:21:06;98783.69;;;19.04
43802;BMP280;29429;51.074;13.764;2023-04-24T07:23:34;98777.63;;;19.17
43802;BMP280;29429;51.074;13.764;2023-04-24T07:26:01;98788.44;;;19.17
43802;BMP280;29429;51.074;13.764;2023-04-24T07:28:29;98784.63;;;19.23
43802;BMP280;29429;51.074;13.764;2023-04-24T07:30:59;98786.13;;;19.34
43802;BMP280;29429;51.074;13.764;2023-04-24T07:33:27;98796.13;;;19.39
43802;BMP280;29429;51.074;13.764;2023-04-24T07:35:54;98794.56;;;19.28
43802;BMP280;29429;51.074;13.764;2023-04-24T07:38:22;98796.47;;;19.27
43802;BMP280;29429;51.074;13.764;2023-04-24T07:40:49;98791.03;;;19.32
43802;BMP280;29429;51.074;13.764;2023-04-24T07:43:17;98795.94;;;19.25
43802;BMP280;29429;51.074;13.764;2023-04-24T07:45:45;98793.13;;;19.35
43802;BMP280;29429;51.074;13.764;2023-04-24T07:48:12;98794.63;;;19.52
43802;BMP280;29429;51.074;13.764;2023-04-24T07:50:43;98791.97;;;19.47
43802;BMP280;29429;51.074;13.764;2023-04-24T07:53:11;98789.78;;;19.49
43802;BMP280;29429;51.074;13.764;2023-04-24T07:55:38;98787.06;;;19.54
43802;BMP280;29429;51.074;13.764;2023-04-24T07:58:05;98798.97;;;19.53
43802;BMP280;29429;51.074;13.764;2023-04-24T08:00:33;98801.66;;;19.53
43802;BMP280;29429;51.074;13.764;2023-04-24T08:03:00;98804.31;;;19.58
43802;BMP280;29429;51.074;13.764;2023-04-24T08:05:28;98808.53;;;19.69
43802;BMP280;29429;51.074;13.764;2023-04-24T08:08:03;98805.19;;;19.77
43802;BMP280;29429;51.074;13.764;2023-04-24T08:10:30;98805.13;;;19.82
43802;BMP280;29429;51.074;13.764;2023-04-24T08:12:58;98797.94;;;19.96
43802;BMP280;29429;51.074;13.764;2023-04-24T08:15:28;98807.44;;;20.17
43802;BMP280;29429;51.074;13.764;2023-04-24T08:18:10;98796.41;;;20.32
43802;BMP280;29429;51.074;13.764;2023-04-24T08:20:44;98806.47;;;20.50
43802;BMP280;29429;51.074;13.764;2023-04-24T08:23:12;98802.72;;;20.65
43802;BMP280;29429;51.074;13.764;2023-04-24T08:25:40;98794.72;;;20.74
43802;BMP280;29429;51.074;13.764;2023-04-24T08:28:09;98795.31;;;20.71
43802;BMP280;29429;51.074;13.764;2023-04-24T08:30:38;98806.38;;;20.55
43802;BMP280;29429;51.074;13.764;2023-04-24T08:33:05;98803.38;;;20.38
43802;BMP280;29429;51.074;13.764;2023-04-24T08:35:34;98806.94;;;20.34
43802;BMP280;29429;51.074;13.764;2023-04-24T08:38:01;98798.97;;;20.42
43802;BMP280;29429;51.074;13.764;2023-04-24T08:40:29;98802.84;;;20.55
43802;BMP280;29429;51.074;13.764;2023-04-24T08:42:59;98803.41;;;20.57
43802;BMP280;29429;51.074;13.764;2023-04-24T08:45:27;98799.28;;;20.59
43802;BMP280;29429;51.074;13.764;2023-04-24T08:47:55;98799.28;;;20.59
43802;BMP280;29429;51.074;13.764;2023-04-24T08:50:22;98802.84;;;20.55
43802;BMP280;29429;51.074;13.764;2023-04-24T08:52:51;98795.63;;;20.69
43802;BMP280;29429;51.074;13.764;2023-04-24T08:55:20;98800.81;;;20.47
43802;BMP280;29429;51.074;13.764;2023-04-24T08:57:52;98807.75;;;20.34
43802;BMP280;29429;51.074;13.764;2023-04-24T09:00:21;98801.84;;;20.32
43802;BMP280;29429;51.074;13.764;2023-04-24T09:02:50;98804.88;;;20.26
43802;BMP280;29429;51.074;13.764;2023-04-24T09:05:18;98801.59;;;20.29
43802;BMP280;29429;51.074;13.764;2023-04-24T09:07:53;98801.13;;;20.22
43802;BMP280;29429;51.074;13.764;2023-04-24T09:10:23;98803.59;;;20.18
43802;BMP280;29429;51.074;13.764;2023-04-24T09:12:52;98805.72;;;20.45
43802;BMP280;29429;51.074;13.764;2023-04-24T09:15:20;98804.31;;;20.66
43802;BMP280;29429;51.074;13.764;2023-04-24T09:17:48;98803.81;;;20.64
43802;BMP280;29429;51.074;13.764;2023-04-24T09:20:15;98802.78;;;20.60
43802;BMP280;29429;51.074;13.764;2023-04-24T09:22:43;98804.72;;;20.59
43802;BMP280;29429;51.074;13.764;2023-04-24T09:25:12;98809.00;;;20.60
43802;BMP280;29429;51.074;13.764;2023-04-24T09:27:45;98809.16;;;20.69
43802;BMP280;29429;51.074;13.764;2023-04-24T09:30:13;98804.47;;;20.75
43802;BMP280;29429;51.074;13.764;2023-04-24T09:32:41;98810.63;;;20.80
43802;BMP280;29429;51.074;13.764;2023-04-24T09:35:14;98813.91;;;20.96
43802;BMP280;29429;51.074;13.764;2023-04-24T09:37:44;98800.53;;;20.86
43802;BMP280;29429;51.074;13.764;2023-04-24T09:42:43;98799.34;;;20.73
43802;BMP280;29429;51.074;13.764;2023-04-24T09:45:12;98798.09;;;20.65
43802;BMP280;29429;51.074;13.764;2023-04-24T09:47:42;98803.59;;;20.79
43802;BMP280;29429;51.074;13.764;2023-04-24T09:50:13;98797.59;;;20.82
43802;BMP280;29429;51.074;13.764;2023-04-24T09:52:47;98792.00;;;20.92
43802;BMP280;29429;51.074;13.764;2023-04-24T09:55:22;98797.28;;;20.84
43802;BMP280;29429;51.074;13.764;2023-04-24T09:57:58;98800.22;;;20.87
43802;BMP280;29429;51.074;13.764;2023-04-24T10:00:28;98804.53;;;20.88
43802;BMP280;29429;51.074;13.764;2023-04-24T10:03:01;98800.44;;;20.91
43802;BMP280;29429;51.074;13.764;2023-04-24T10:05:39;98803.00;;;20.82
43802;BMP280;29429;51.074;13.764;2023-04-24T10:08:10;98796.13;;;20.71
43802;BMP280;29429;51.074;13.764;2023-04-24T10:10:41;98800.72;;;20.71
43802;BMP280;29429;51.074;13.764;2023-04-24T10:13:13;98806.38;;;20.74
43802;BMP280;29429;51.074;13.764;2023-04-24T10:15:43;98800.06;;;20.79
43802;BMP280;29429;51.074;13.764;2023-04-24T10:18:11;98806.16;;;20.71
43802;BMP280;29429;51.074;13.764;2023-04-24T10:20:40;98809.09;;;20.55
43802;BMP280;29429;51.074;13.764;2023-04-24T10:23:07;98810.47;;;20.53
43802;BMP280;29429;51.074;13.764;2023-04-24T10:25:36;98794.31;;;20.67
43802;BMP280;29429;51.074;13.764;2023-04-24T10:28:04;98791.34;;;20.82
43802;BMP280;29429;51.074;13.764;2023-04-24T10:30:34;98787.78;;;21.00
43802;BMP280;29429;51.074;13.764;2023-04-24T10:33:08;98787.88;;;21.13
43802;BMP280;29429;51.074;13.764;2023-04-24T10:35:42;98785.19;;;21.27
43802;BMP280;29429;51.074;13.764;2023-04-24T10:38:16;98771.63;;;21.27
43802;BMP280;29429;51.074;13.764;2023-04-24T10:40:44;98782.69;;;21.17
43802;BMP280;29429;51.074;13.764;2023-04-24T10:43:17;98784.69;;;21.25
43802;BMP280;29429;51.074;13.764;2023-04-24T10:46:05;98781.50;;;21.23
43802;BMP280;29429;51.074;13.764;2023-04-24T10:48:34;98776.69;;;21.34
43802;BMP280;29429;51.074;13.764;2023-04-24T10:51:02;98777.28;;;21.31
43802;BMP280;29429;51.074;13.764;2023-04-24T10:53:30;98780.38;;;21.24
43802;BMP280;29429;51.074;13.764;2023-04-24T10:56:03;98776.84;;;21.23
43802;BMP280;29429;51.074;13.764;2023-04-24T11:02:44;98775.09;;;21.46
43802;BMP280;29429;51.074;13.764;2023-04-24T11:05:20;98778.09;;;21.58
43802;BMP280;29429;51.074;13.764;2023-04-24T11:08:10;98774.09;;;21.69
43802;BMP280;29429;51.074;13.764;2023-04-24T11:16:51;98780.00;;;21.31
43802;BMP280;29429;51.074;13.764;2023-04-24T11:19:27;98797.13;;;20.94
43802;BMP280;29429;51.074;13.764;2023-04-24T11:21:57;98787.63;;;20.59
43802;BMP280;29429;51.074;13.764;2023-04-24T11:24:38;98792.91;;;20.50
43802;BMP280;29429;51.074;13.764;2023-04-24T11:27:13;98798.38;;;20.27
43802;BMP280;29429;51.074;13.764;2023-04-24T11:32:26;98805.19;;;20.24
43802;BMP280;29429;51.074;13.764;2023-04-24T11:35:13;98803.28;;;20.25
43802;BMP280;29429;51.074;13.764;2023-04-24T11:37:43;98808.34;;;20.08
43802;BMP280;29429;51.074;13.764;2023-04-24T11:40:21;98809.16;;;20.08
43802;BMP280;29429;51.074;13.764;2023-04-24T11:42:51;98804.72;;;20.17
43802;BMP280;29429;51.074;13.764;2023-04-24T11:45:27;98805.38;;;20.51
43802;BMP280;29429;51.074;13.764;2023-04-24T11:47:55;98793.06;;;20.78
43802;BMP280;29429;51.074;13.764;2023-04-24T11:50:24;98792.22;;;21.14
43802;BMP280;29429;51.074;13.764;2023-04-24T11:52:57;98787.97;;;21.54
43802;BMP280;29429;51.074;13.764;2023-04-24T11:55:27;98780.03;;;21.71
43802;BMP280;29429;51.074;13.764;2023-04-24T11:57:59;98783.97;;;21.65
43802;BMP280;29429;51.074;13.764;2023-04-24T12:00:31;98785.94;;;21.46
43802;BMP280;29429;51.074;13.764;2023-04-24T12:03:09;98776.66;;;21.20
43802;BMP280;29429;51.074;13.764;2023-04-24T12:05:39;98789.44;;;20.82
43802;BMP280;29429;51.074;13.764;2023-04-24T12:08:07;98787.41;;;20.55
43802;BMP280;29429;51.074;13.764;2023-04-24T12:10:35;98797.16;;;20.38
43802;BMP280;29429;51.074;13.764;2023-04-24T12:13:03;98797.25;;;20.09
43802;BMP280;29429;51.074;13.764;2023-04-24T12:15:30;98804.31;;;19.81
43802;BMP280;29429;51.074;13.764;2023-04-24T12:18:03;98793.50;;;19.58
43802;BMP280;29429;51.074;13.764;2023-04-24T12:20:32;98802.03;;;19.41
43802;BMP280;29429;51.074;13.764;2023-04-24T12:23:00;98800.72;;;19.38
43802;BMP280;29429;51.074;13.764;2023-04-24T12:25:32;98803.41;;;19.38
43802;BMP280;29429;51.074;13.764;2023-04-24T12:30:32;98800.03;;;19.52
43802;BMP280;29429;51.074;13.764;2023-04-24T12:33:00;98802.69;;;19.57
43802;BMP280;29429;51.074;13.764;2023-04-24T12:35:31;98799.25;;;19.51
43802;BMP280;29429;51.074;13.764;2023-04-24T12:38:10;98800.72;;;19.38
43802;BMP280;29429;51.074;13.764;2023-04-24T12:40:40;98807.19;;;19.42
43802;BMP280;29429;51.074;13.764;2023-04-24T12:43:19;98800.03;;;19.52
43802;BMP280;29429;51.074;13.764;2023-04-24T12:45:48;98790.72;;;19.63
43802;BMP280;29429;51.074;13.764;2023-04-24T12:48:15;98798.69;;;19.78
43802;BMP280;29429;51.074;13.764;2023-04-24T12:50:44;98804.84;;;19.83
43802;BMP280;29429;51.074;13.764;2023-04-24T12:53:13;98809.41;;;19.88
43802;BMP280;29429;51.074;13.764;2023-04-24T12:55:41;98812.19;;;19.83
43802;BMP280;29429;51.074;13.764;2023-04-24T12:58:09;98809.28;;;19.74
43802;BMP280;29429;51.074;13.764;2023-04-24T13:00:43;98818.16;;;19.80
43802;BMP280;29429;51.074;13.764;2023-04-24T13:03:13;98812.19;;;19.78
43802;BMP280;29429;51.074;13.764;2023-04-24T13:05:41;98796.50;;;19.80
43802;BMP280;29429;51.074;13.764;2023-04-24T13:08:09;98805.13;;;19.82
43802;BMP280;29429;51.074;13.764;2023-04-24T13:10:37;98795.88;;;19.88
43802;BMP280;29429;51.074;13.764;2023-04-24T13:13:04;98788.13;;;20.00
43802;BMP280;29429;51.074;13.764;2023-04-24T13:15:32;98796.38;;;19.90
43802;BMP280;29429;51.074;13.764;2023-04-24T13:17:59;98786.25;;;19.77
43802;BMP280;29429;51.074;13.764;2023-04-24T13:20:27;98783.06;;;19.70
43802;BMP280;29429;51.074;13.764;2023-04-24T13:22:55;98780.47;;;19.83
43802;BMP280;29429;51.074;13.764;2023-04-24T13:25:22;98784.78;;;20.08
43802;BMP280;29429;51.074;13.764;2023-04-24T13:27:52;98796.00;;;20.20
43802;BMP280;29429;51.074;13.764;2023-04-24T13:30:19;98797.38;;;20.18
43802;BMP280;29429;51.074;13.764;2023-04-24T13:32:47;98791.94;;;19.99
43802;BMP280;29429;51.074;13.764;2023-04-24T13:35:14;98792.69;;;19.81
43802;BMP280;29429;51.074;13.764;2023-04-24T13:37:42;98785.84;;;19.65
43802;BMP280;29429;51.074;13.764;2023-04-24T13:40:09;98792.56;;;19.67
43802;BMP280;29429;51.074;13.764;2023-04-24T13:42:37;98801.44;;;19.73
43802;BMP280;29429;51.074;13.764;2023-04-24T13:45:05;98799.47;;;19.78
43802;BMP280;29429;51.074;13.764;2023-04-24T13:47:51;98802.38;;;19.87
43802;BMP280;29429;51.074;13.764;2023-04-24T13:50:19;98789.03;;;19.72
43802;BMP280;29429;51.074;13.764;2023-04-24T13:52:47;98792.03;;;19.41
43802;BMP280;29429;51.074;13.764;2023-04-24T13:55:14;98811.34;;;19.25
43802;BMP280;29429;51.074;13.764;2023-04-24T13:57:42;98805.78;;;19.16
43802;BMP280;29429;51.074;13.764;2023-04-24T14:00:11;98797.72;;;19.06
43802;BMP280;29429;51.074;13.764;2023-04-24T14:02:40;98801.59;;;19.00
43802;BMP280;29429;51.074;13.764;2023-04-24T14:05:08;98796.75;;;18.97
43802;BMP280;29429;51.074;13.764;2023-04-24T14:07:38;98802.91;;;19.03
43802;BMP280;29429;51.074;13.764;2023-04-24T14:10:06;98798.19;;;19.18
43802;BMP280;29429;51.074;13.764;2023-04-24T14:12:34;98790.03;;;19.23
43802;BMP280;29429;51.074;13.764;2023-04-24T14:15:01;98793.72;;;19.37
43802;BMP280;29429;51.074;13.764;2023-04-24T14:17:29;98790.66;;;19.44
43802;BMP280;29429;51.074;13.764;2023-04-24T14:19:57;98785.72;;;19.51
43802;BMP280;29429;51.074;13.764;2023-04-24T14:22:27;98787.56;;;19.56
43802;BMP280;29429;51.074;13.764;2023-04-24T14:24:54;98798.22;;;19.71
43802;BMP280;29429;51.074;13.764;2023-04-24T14:27:21;98776.00;;;19.74